createdAt,value
2022-11-10T00:00:37.230Z,19.26
2022-11-10T00:01:17.503Z,19.29
2022-11-10T00:01:58.973Z,19.29
2022-11-10T00:02:39.550Z,19.25
2022-11-10T00:03:21.239Z,19.30
2022-11-10T00:04:01.860Z,19.29
2022-11-10T00:04:43.150Z,19.30
2022-11-10T00:05:23.263Z,19.30
2022-11-10T00:06:05.105Z,19.28
2022-11-10T00:06:46.477Z,19.24
2022-11-10T00:07:28.164Z,19.17
2022-11-10T00:08:12.825Z,19.24
2022-11-10T00:08:53.194Z,19.27
2022-11-10T00:09:34.757Z,19.20
2022-11-10T00:10:15.544Z,19.18
2022-11-10T00:10:58.495Z,19.25
2022-11-10T00:11:39.756Z,19.32
2022-11-10T00:12:20.216Z,19.33
2022-11-10T00:13:02.726Z,19.37
2022-11-10T00:13:57.681Z,19.41
2022-11-10T00:14:56.393Z,19.39
2022-11-10T00:15:58.429Z,19.40
2022-11-10T00:16:57.311Z,19.37
2022-11-10T00:17:39.346Z,19.37
2022-11-10T00:18:19.323Z,19.34
2022-11-10T00:19:00.602Z,19.42
2022-11-10T00:19:40.747Z,19.42
2022-11-10T00:20:22.090Z,19.34
2022-11-10T00:21:04.903Z,19.29
2022-11-10T00:21:46.360Z,19.26
2022-11-10T00:22:26.630Z,19.28
2022-11-10T00:23:08.015Z,19.34
2022-11-10T00:23:48.482Z,19.28
2022-11-10T00:24:30.265Z,19.34
2022-11-10T00:25:10.887Z,19.36
2022-11-10T00:25:51.226Z,19.40
2022-11-10T00:26:32.870Z,19.32
2022-11-10T00:27:14.632Z,19.47
2022-11-10T00:27:59.729Z,19.46
2022-11-10T00:28:40.078Z,19.48
2022-11-10T00:29:21.872Z,19.49
2022-11-10T00:30:02.968Z,19.51
2022-11-10T00:30:46.962Z,19.56
2022-11-10T00:31:28.346Z,19.52
2022-11-10T00:32:10.131Z,19.50
2022-11-10T00:32:50.531Z,19.53
2022-11-10T00:33:30.897Z,19.49
2022-11-10T00:34:15.884Z,19.49
2022-11-10T00:34:56.122Z,19.53
2022-11-10T00:35:37.466Z,19.52
2022-11-10T00:36:17.378Z,19.52
2022-11-10T00:36:58.878Z,19.57
2022-11-10T00:37:39.072Z,19.60
2022-11-10T00:38:20.337Z,19.58
2022-11-10T00:39:00.438Z,19.59
2022-11-10T00:39:41.747Z,19.60
2022-11-10T00:40:21.916Z,19.62
2022-11-10T00:41:03.655Z,19.66
2022-11-10T00:41:44.025Z,19.66
2022-11-10T00:42:24.314Z,19.66
2022-11-10T00:43:05.780Z,19.67
2022-11-10T00:43:46.204Z,19.63
2022-11-10T00:44:26.762Z,19.63
2022-11-10T00:45:08.792Z,19.63
2022-11-10T00:45:50.548Z,19.55
2022-11-10T00:46:31.967Z,19.48
2022-11-10T00:47:12.674Z,19.37
2022-11-10T00:47:53.636Z,19.38
2022-11-10T00:48:35.223Z,19.34
2022-11-10T00:49:16.319Z,19.35
2022-11-10T00:49:56.485Z,19.34
2022-11-10T00:50:37.690Z,19.37
2022-11-10T00:51:22.409Z,19.39
2022-11-10T00:52:03.706Z,19.34
2022-11-10T00:52:43.670Z,19.38
2022-11-10T00:53:24.611Z,19.33
2022-11-10T00:54:06.691Z,19.34
2022-11-10T00:54:47.001Z,19.35
2022-11-10T00:55:28.248Z,19.35
2022-11-10T00:56:08.411Z,19.39
2022-11-10T00:56:49.645Z,19.42
2022-11-10T00:57:29.726Z,19.32
2022-11-10T00:58:11.069Z,19.35
2022-11-10T00:58:51.222Z,19.37
2022-11-10T00:59:32.636Z,19.41
2022-11-10T01:00:13.085Z,19.43
2022-11-10T01:01:03.036Z,19.36
2022-11-10T01:01:43.428Z,19.40
2022-11-10T01:02:24.898Z,19.43
2022-11-10T01:03:05.027Z,19.42
2022-11-10T01:03:46.797Z,19.46
2022-11-10T01:04:27.210Z,19.49
2022-11-10T01:05:08.281Z,19.53
2022-11-10T01:05:49.380Z,19.53
2022-11-10T01:06:29.487Z,19.57
2022-11-10T01:07:10.809Z,19.60
2022-11-10T01:07:51.330Z,19.57
2022-11-10T01:08:31.628Z,19.54
2022-11-10T01:09:12.974Z,19.50
2022-11-10T01:09:53.096Z,19.46
2022-11-10T01:10:34.645Z,19.47
2022-11-10T01:11:17.421Z,19.39
2022-11-10T01:11:58.620Z,19.35
2022-11-10T01:12:38.876Z,19.42
2022-11-10T01:13:20.592Z,19.38
2022-11-10T01:14:01.290Z,19.43
2022-11-10T01:14:42.680Z,19.35
2022-11-10T01:15:27.254Z,19.35
2022-11-10T01:16:12.307Z,19.36
2022-11-10T01:16:52.318Z,19.31
2022-11-10T01:17:33.759Z,19.33
2022-11-10T01:18:14.065Z,19.27
2022-11-10T01:18:57.288Z,19.26
2022-11-10T01:19:37.552Z,19.28
2022-11-10T01:20:19.105Z,19.23
2022-11-10T01:20:59.548Z,19.28
2022-11-10T01:21:40.958Z,19.25
2022-11-10T01:22:21.110Z,19.13
2022-11-10T01:23:02.927Z,19.10
2022-11-10T01:23:43.323Z,19.10
2022-11-10T01:24:23.584Z,19.06
2022-11-10T01:25:05.656Z,19.07
2022-11-10T01:25:45.945Z,19.07
2022-11-10T01:27:10.537Z,18.99
2022-11-10T01:27:51.093Z,19.07
2022-11-10T01:28:33.284Z,19.02
2022-11-10T01:29:13.774Z,19.03
2022-11-10T01:29:54.388Z,19.07
2022-11-10T01:30:36.105Z,19.12
2022-11-10T01:31:20.009Z,19.11
2022-11-10T01:32:01.664Z,19.18
2022-11-10T01:32:42.533Z,19.15
2022-11-10T01:33:23.413Z,19.15
2022-11-10T01:34:05.132Z,19.21
2022-11-10T01:34:45.733Z,19.20
2022-11-10T01:35:26.717Z,19.22
2022-11-10T01:36:08.768Z,19.26
2022-11-10T01:36:50.194Z,19.14
2022-11-10T01:37:30.794Z,19.11
2022-11-10T01:38:12.123Z,19.13
2022-11-10T01:38:52.713Z,19.07
2022-11-10T01:39:35.215Z,19.09
2022-11-10T01:40:15.637Z,19.14
2022-11-10T01:40:57.290Z,19.15
2022-11-10T01:41:37.557Z,19.19
2022-11-10T01:42:26.034Z,19.21
2022-11-10T01:43:06.359Z,19.24
2022-11-10T01:43:48.055Z,19.22
2022-11-10T01:44:28.663Z,19.16
2022-11-10T01:45:44.316Z,18.94
2022-11-10T01:46:26.252Z,18.96
2022-11-10T01:47:07.362Z,18.97
2022-11-10T01:47:47.981Z,18.99
2022-11-10T01:48:32.851Z,19.03
2022-11-10T01:49:16.712Z,19.05
2022-11-10T01:49:56.999Z,19.03
2022-11-10T01:50:39.732Z,18.98
2022-11-10T01:51:29.134Z,18.94
2022-11-10T01:52:13.579Z,18.84
2022-11-10T01:52:57.635Z,18.92
2022-11-10T01:53:43.028Z,18.95
2022-11-10T01:54:27.470Z,18.98
2022-11-10T01:55:09.447Z,18.99
2022-11-10T01:55:51.441Z,19.01
2022-11-10T01:56:36.814Z,18.89
2022-11-10T01:57:17.539Z,18.84
2022-11-10T01:57:58.160Z,18.94
2022-11-10T01:58:44.316Z,18.96
2022-11-10T01:59:28.936Z,18.97
2022-11-10T02:00:12.038Z,18.91
2022-11-10T02:00:52.477Z,18.92
2022-11-10T02:01:35.051Z,18.94
2022-11-10T02:02:24.950Z,18.86
2022-11-10T02:03:10.937Z,18.91
2022-11-10T02:03:56.867Z,18.95
2022-11-10T02:04:39.978Z,18.93
2022-11-10T02:05:22.785Z,18.99
2022-11-10T02:06:05.255Z,19.05
2022-11-10T02:06:48.465Z,18.93
2022-11-10T02:07:30.543Z,19.03
2022-11-10T02:08:14.470Z,19.04
2022-11-10T02:08:58.541Z,19.09
2022-11-10T02:09:39.228Z,19.08
2022-11-10T02:10:20.905Z,19.14
2022-11-10T02:11:02.548Z,19.14
2022-11-10T02:11:44.382Z,19.18
2022-11-10T02:12:38.167Z,19.16
2022-11-10T02:13:18.981Z,19.16
2022-11-10T02:14:00.393Z,19.13
2022-11-10T02:14:42.889Z,19.15
2022-11-10T02:15:23.812Z,19.17
2022-11-10T02:16:06.208Z,19.13
2022-11-10T02:16:48.637Z,19.11
2022-11-10T02:17:30.488Z,19.11
2022-11-10T02:18:11.379Z,19.12
2022-11-10T02:18:53.276Z,19.06
2022-11-10T02:19:40.602Z,19.11
2022-11-10T02:20:21.704Z,19.10
2022-11-10T02:21:06.552Z,19.13
2022-11-10T02:21:47.286Z,19.14
2022-11-10T02:22:27.888Z,19.14
2022-11-10T02:23:13.646Z,19.15
2022-11-10T02:23:54.631Z,19.13
2022-11-10T02:24:36.115Z,19.11
2022-11-10T02:25:21.182Z,19.14
2022-11-10T02:26:02.391Z,19.15
2022-11-10T02:26:49.770Z,19.09
2022-11-10T02:27:30.980Z,19.08
2022-11-10T02:28:11.236Z,19.09
2022-11-10T02:28:52.784Z,19.08
2022-11-10T02:29:33.953Z,19.08
2022-11-10T02:30:15.743Z,19.10
2022-11-10T02:30:59.530Z,19.12
2022-11-10T02:31:39.638Z,19.09
2022-11-10T02:32:21.500Z,19.10
2022-11-10T02:33:03.798Z,19.11
2022-11-10T02:33:44.539Z,19.14
2022-11-10T02:34:26.762Z,19.14
2022-11-10T02:35:10.570Z,19.14
2022-11-10T02:35:51.223Z,19.05
2022-11-10T02:36:34.419Z,19.09
2022-11-10T02:37:15.887Z,19.10
2022-11-10T02:37:56.513Z,19.11
2022-11-10T02:38:38.360Z,19.14
2022-11-10T02:39:18.567Z,19.13
2022-11-10T02:39:59.836Z,19.14
2022-11-10T02:40:40.607Z,19.18
2022-11-10T02:41:22.187Z,19.19
2022-11-10T02:42:02.520Z,19.13
2022-11-10T02:42:42.916Z,19.14
2022-11-10T02:43:24.845Z,19.15
2022-11-10T02:44:07.205Z,19.14
2022-11-10T02:44:48.101Z,19.14
2022-11-10T02:45:30.013Z,19.12
2022-11-10T02:46:10.659Z,19.15
2022-11-10T02:46:52.204Z,19.15
2022-11-10T02:47:32.376Z,19.16
2022-11-10T02:48:14.348Z,19.17
2022-11-10T02:48:55.702Z,19.20
2022-11-10T02:49:36.160Z,19.15
2022-11-10T02:50:17.024Z,19.19
2022-11-10T02:50:58.624Z,19.21
2022-11-10T02:51:40.599Z,19.18
2022-11-10T02:52:20.712Z,19.20
2022-11-10T02:53:02.201Z,19.18
2022-11-10T02:53:42.930Z,19.16
2022-11-10T02:54:24.211Z,19.14
2022-11-10T02:55:05.401Z,19.10
2022-11-10T02:55:45.516Z,19.11
2022-11-10T02:56:26.928Z,19.07
2022-11-10T02:57:07.344Z,19.09
2022-11-10T02:57:47.748Z,19.13
2022-11-10T02:58:28.986Z,19.11
2022-11-10T02:59:09.602Z,19.12
2022-11-10T02:59:49.906Z,19.12
2022-11-10T03:00:31.740Z,19.06
2022-11-10T03:01:12.559Z,19.06
2022-11-10T03:01:52.938Z,19.06
2022-11-10T03:02:34.522Z,19.05
2022-11-10T03:03:15.578Z,18.99
2022-11-10T03:03:55.955Z,19.01
2022-11-10T03:04:37.846Z,19.02
2022-11-10T03:05:19.097Z,18.99
2022-11-10T03:05:59.763Z,18.96
2022-11-10T03:06:43.021Z,18.97
2022-11-10T03:07:23.514Z,18.97
2022-11-10T03:08:05.584Z,18.94
2022-11-10T03:08:46.028Z,18.87
2022-11-10T03:09:26.430Z,18.93
2022-11-10T03:10:09.140Z,18.96
2022-11-10T03:10:53.832Z,18.93
2022-11-10T03:11:36.132Z,18.93
2022-11-10T03:12:16.253Z,18.93
2022-11-10T03:12:59.016Z,18.95
2022-11-10T03:14:00.222Z,18.95
2022-11-10T03:14:46.911Z,18.95
2022-11-10T03:15:28.433Z,18.97
2022-11-10T03:16:08.723Z,18.98
2022-11-10T03:16:50.520Z,18.93
2022-11-10T03:17:31.521Z,18.94
2022-11-10T03:18:13.814Z,18.90
2022-11-10T03:18:54.509Z,18.92
2022-11-10T03:19:36.993Z,18.87
2022-11-10T03:20:18.645Z,18.89
2022-11-10T03:20:59.759Z,18.88
2022-11-10T03:21:41.943Z,18.89
2022-11-10T03:22:22.482Z,18.78
2022-11-10T03:23:05.390Z,18.79
2022-11-10T03:23:46.031Z,18.70
2022-11-10T03:24:26.406Z,18.73
2022-11-10T03:25:08.809Z,18.70
2022-11-10T03:25:49.459Z,18.69
2022-11-10T03:26:31.477Z,18.69
2022-11-10T03:27:12.802Z,18.61
2022-11-10T03:27:52.960Z,18.60
2022-11-10T03:28:34.751Z,18.57
2022-11-10T03:29:15.359Z,18.50
2022-11-10T03:29:56.762Z,18.46
2022-11-10T03:30:37.183Z,18.50
2022-11-10T03:31:17.653Z,18.50
2022-11-10T03:31:59.258Z,18.47
2022-11-10T03:32:39.917Z,18.47
2022-11-10T03:33:22.146Z,18.39
2022-11-10T03:34:02.640Z,18.39
2022-11-10T03:34:44.091Z,18.37
2022-11-10T03:35:24.526Z,18.38
2022-11-10T03:36:06.373Z,18.34
2022-11-10T03:36:48.290Z,18.33
2022-11-10T03:37:28.395Z,18.33
2022-11-10T03:38:10.155Z,18.33
2022-11-10T03:38:50.653Z,18.32
2022-11-10T03:39:32.275Z,18.35
2022-11-10T03:40:12.951Z,18.36
2022-11-10T03:41:18.097Z,18.36
2022-11-10T03:41:55.216Z,18.40
2022-11-10T03:42:36.857Z,18.39
2022-11-10T03:43:17.427Z,18.35
2022-11-10T03:43:57.857Z,18.37
2022-11-10T03:44:39.424Z,18.36
2022-11-10T03:45:19.751Z,18.38
2022-11-10T03:46:00.471Z,18.36
2022-11-10T03:46:43.607Z,18.37
2022-11-10T03:47:24.000Z,18.37
2022-11-10T03:48:06.000Z,18.40
2022-11-10T03:48:52.847Z,18.41
2022-11-10T03:49:35.280Z,18.41
2022-11-10T03:50:16.645Z,18.42
2022-11-10T03:50:58.236Z,18.46
2022-11-10T03:51:38.632Z,18.47
2022-11-10T03:52:21.628Z,18.47
2022-11-10T03:53:02.740Z,18.41
2022-11-10T03:53:44.186Z,18.43
2022-11-10T03:54:24.683Z,18.41
2022-11-10T03:55:05.642Z,18.41
2022-11-10T03:55:47.200Z,18.38
2022-11-10T03:56:27.503Z,18.39
2022-11-10T03:57:08.027Z,18.38
2022-11-10T03:57:49.500Z,18.41
2022-11-10T03:58:30.333Z,18.33
2022-11-10T03:59:11.629Z,18.38
2022-11-10T03:59:52.243Z,18.37
2022-11-10T04:00:32.630Z,18.40
2022-11-10T04:01:14.092Z,18.37
2022-11-10T04:01:55.086Z,18.39
2022-11-10T04:02:37.243Z,18.40
2022-11-10T04:03:18.143Z,18.45
2022-11-10T04:03:59.364Z,18.49
2022-11-10T04:04:58.057Z,18.50
2022-11-10T04:05:56.798Z,18.52
2022-11-10T04:06:55.999Z,18.54
2022-11-10T04:07:56.159Z,18.53
2022-11-10T04:08:55.173Z,18.49
2022-11-10T04:09:37.087Z,18.49
2022-11-10T04:10:17.842Z,18.44
2022-11-10T04:10:58.372Z,18.50
2022-11-10T04:11:57.376Z,18.41
2022-11-10T04:12:56.255Z,18.43
2022-11-10T04:13:55.220Z,18.40
2022-11-10T04:14:54.109Z,18.41
2022-11-10T04:15:44.662Z,18.42
2022-11-10T04:16:24.966Z,18.42
2022-11-10T04:17:06.483Z,18.45
2022-11-10T04:17:49.204Z,18.44
2022-11-10T04:18:29.708Z,18.47
2022-11-10T04:19:11.398Z,18.47
2022-11-10T04:19:51.856Z,18.50
2022-11-10T04:20:33.283Z,18.46
2022-11-10T04:21:13.667Z,18.38
2022-11-10T04:21:55.500Z,18.41
2022-11-10T04:22:55.566Z,18.37
2022-11-10T04:23:36.358Z,18.34
2022-11-10T04:24:18.037Z,18.30
2022-11-10T04:24:58.292Z,18.30
2022-11-10T04:25:58.487Z,18.30
2022-11-10T04:26:40.600Z,18.35
2022-11-10T04:27:21.224Z,18.34
2022-11-10T04:28:01.441Z,18.32
2022-11-10T04:28:42.941Z,18.31
2022-11-10T04:29:23.198Z,18.31
2022-11-10T04:30:05.618Z,18.33
2022-11-10T04:30:45.962Z,18.33
2022-11-10T04:31:29.686Z,18.31
2022-11-10T04:32:10.100Z,18.33
2022-11-10T04:32:54.864Z,18.36
2022-11-10T04:33:35.510Z,18.34
2022-11-10T04:34:17.080Z,18.30
2022-11-10T04:34:57.527Z,18.30
2022-11-10T04:35:37.883Z,18.30
2022-11-10T04:36:21.393Z,18.28
2022-11-10T04:37:01.406Z,18.28
2022-11-10T04:37:43.625Z,18.31
2022-11-10T04:38:25.304Z,18.33
2022-11-10T04:39:06.637Z,18.32
2022-11-10T04:39:48.453Z,18.29
2022-11-10T04:40:28.761Z,18.29
2022-11-10T04:41:11.118Z,18.26
2022-11-10T04:41:51.950Z,18.23
2022-11-10T04:42:33.217Z,18.25
2022-11-10T04:43:13.717Z,18.27
2022-11-10T04:43:55.682Z,18.26
2022-11-10T04:44:36.108Z,18.22
2022-11-10T04:45:18.797Z,18.27
2022-11-10T04:45:59.873Z,18.30
2022-11-10T04:46:42.587Z,18.31
2022-11-10T04:47:23.448Z,18.33
2022-11-10T04:48:04.186Z,18.30
2022-11-10T04:48:45.929Z,18.28
2022-11-10T04:49:26.627Z,18.28
2022-11-10T04:50:08.402Z,18.24
2022-11-10T04:50:48.683Z,18.22
2022-11-10T04:51:31.516Z,18.19
2022-11-10T04:52:11.592Z,18.24
2022-11-10T04:52:53.770Z,18.28
2022-11-10T04:53:35.259Z,18.26
2022-11-10T04:54:15.590Z,18.25
2022-11-10T04:54:57.201Z,18.27
2022-11-10T04:55:39.673Z,18.24
2022-11-10T04:56:23.655Z,18.24
2022-11-10T04:57:04.308Z,18.21
2022-11-10T04:57:44.729Z,18.23
2022-11-10T04:58:26.479Z,18.24
2022-11-10T04:59:06.728Z,18.22
2022-11-10T04:59:47.698Z,18.22
2022-11-10T05:00:28.058Z,18.21
2022-11-10T05:01:12.243Z,18.17
2022-11-10T05:01:52.815Z,18.17
2022-11-10T05:02:38.324Z,18.15
2022-11-10T05:03:21.119Z,18.16
2022-11-10T05:04:02.063Z,18.13
2022-11-10T05:04:43.324Z,18.09
2022-11-10T05:05:23.734Z,18.15
2022-11-10T05:06:04.331Z,18.12
2022-11-10T05:06:45.968Z,18.10
2022-11-10T05:07:26.273Z,18.06
2022-11-10T05:08:09.351Z,18.08
2022-11-10T05:08:51.662Z,18.04
2022-11-10T05:09:32.828Z,17.98
2022-11-10T05:10:13.254Z,17.92
2022-11-10T05:10:55.315Z,17.96
2022-11-10T05:11:35.803Z,17.99
2022-11-10T05:12:21.257Z,18.04
2022-11-10T05:13:04.676Z,18.05
2022-11-10T05:13:46.679Z,18.07
2022-11-10T05:14:27.488Z,18.05
2022-11-10T05:15:09.311Z,18.08
2022-11-10T05:15:51.842Z,18.10
2022-11-10T05:16:32.550Z,18.05
2022-11-10T05:17:13.796Z,18.09
2022-11-10T05:17:56.426Z,18.07
2022-11-10T05:18:36.592Z,18.07
2022-11-10T05:19:18.134Z,18.05
2022-11-10T05:19:58.995Z,18.04
2022-11-10T05:20:40.583Z,18.08
2022-11-10T05:21:21.082Z,18.07
2022-11-10T05:22:02.694Z,18.10
2022-11-10T05:22:48.841Z,18.15
2022-11-10T05:23:39.586Z,18.15
2022-11-10T05:24:20.763Z,18.09
2022-11-10T05:25:01.150Z,18.08
2022-11-10T05:25:42.410Z,18.09
2022-11-10T05:26:24.056Z,18.12
2022-11-10T05:27:04.670Z,18.09
2022-11-10T05:27:45.260Z,18.11
2022-11-10T05:28:26.392Z,18.08
2022-11-10T05:29:06.987Z,18.11
2022-11-10T05:29:48.234Z,18.08
2022-11-10T05:30:28.739Z,18.09
2022-11-10T05:31:10.442Z,18.10
2022-11-10T05:31:51.771Z,18.09
2022-11-10T05:32:33.294Z,18.10
2022-11-10T05:33:13.794Z,18.17
2022-11-10T05:33:54.873Z,18.16
2022-11-10T05:34:35.683Z,18.16
2022-11-10T05:35:16.239Z,18.15
2022-11-10T05:35:57.425Z,18.15
2022-11-10T05:36:38.091Z,18.13
2022-11-10T05:37:19.847Z,18.14
2022-11-10T05:38:00.246Z,18.08
2022-11-10T05:38:43.988Z,18.17
2022-11-10T05:39:24.549Z,18.16
2022-11-10T05:40:07.194Z,18.14
2022-11-10T05:40:47.787Z,18.11
2022-11-10T05:41:29.197Z,18.09
2022-11-10T05:42:09.734Z,18.09
2022-11-10T05:42:52.889Z,18.08
2022-11-10T05:43:34.440Z,18.14
2022-11-10T05:44:14.959Z,18.09
2022-11-10T05:44:56.377Z,18.05
2022-11-10T05:45:36.594Z,18.07
2022-11-10T05:46:21.864Z,18.13
2022-11-10T05:47:02.371Z,18.07
2022-11-10T05:47:42.684Z,18.19
2022-11-10T05:48:25.567Z,18.23
2022-11-10T05:49:06.395Z,18.25
2022-11-10T05:49:46.956Z,18.24
2022-11-10T05:50:28.540Z,18.20
2022-11-10T05:51:09.158Z,18.23
2022-11-10T05:51:50.726Z,18.23
2022-11-10T05:52:31.031Z,18.23
2022-11-10T05:53:12.883Z,18.21
2022-11-10T05:53:54.651Z,18.20
2022-11-10T05:54:35.129Z,18.20
2022-11-10T05:55:18.305Z,18.18
2022-11-10T05:55:59.160Z,18.06
2022-11-10T05:56:39.630Z,18.16
2022-11-10T05:57:20.944Z,18.10
2022-11-10T05:58:01.435Z,18.19
2022-11-10T05:58:42.809Z,18.10
2022-11-10T05:59:22.963Z,18.01
2022-11-10T06:00:04.643Z,18.12
2022-11-10T06:00:46.111Z,18.07
2022-11-10T06:01:26.492Z,18.19
2022-11-10T06:02:06.990Z,18.20
2022-11-10T06:02:58.256Z,18.18
2022-11-10T06:03:38.937Z,18.13
2022-11-10T06:04:20.451Z,18.09
2022-11-10T06:05:00.977Z,18.18
2022-11-10T06:05:43.058Z,18.13
2022-11-10T06:06:23.318Z,18.18
2022-11-10T06:07:04.593Z,18.16
2022-11-10T06:07:45.120Z,18.18
2022-11-10T06:08:26.325Z,18.20
2022-11-10T06:09:09.097Z,18.06
2022-11-10T06:09:49.277Z,18.17
2022-11-10T06:10:32.448Z,18.12
2022-11-10T06:11:13.139Z,18.01
2022-11-10T06:11:54.645Z,17.99
2022-11-10T06:12:35.359Z,17.91
2022-11-10T06:13:17.064Z,17.95
2022-11-10T06:13:57.253Z,18.00
2022-11-10T06:14:37.811Z,18.01
2022-11-10T06:15:19.495Z,18.03
2022-11-10T06:16:00.137Z,18.01
2022-11-10T06:16:41.402Z,18.04
2022-11-10T06:17:21.674Z,18.03
2022-11-10T06:18:04.959Z,18.03
2022-11-10T06:18:45.321Z,18.01
2022-11-10T06:19:25.755Z,18.03
2022-11-10T06:20:08.595Z,18.07
2022-11-10T06:20:48.907Z,18.08
2022-11-10T06:21:30.725Z,18.08
2022-11-10T06:22:11.035Z,18.01
2022-11-10T06:23:01.133Z,18.01
2022-11-10T06:23:41.878Z,18.00
2022-11-10T06:24:24.763Z,18.00
2022-11-10T06:25:07.398Z,17.96
2022-11-10T06:25:49.089Z,17.91
2022-11-10T06:26:29.403Z,17.92
2022-11-10T06:27:10.187Z,17.89
2022-11-10T06:27:51.468Z,17.91
2022-11-10T06:28:32.068Z,17.89
2022-11-10T06:29:13.471Z,17.93
2022-11-10T06:29:54.002Z,17.95
2022-11-10T06:30:37.035Z,17.94
2022-11-10T06:31:17.773Z,17.93
2022-11-10T06:31:59.096Z,17.94
2022-11-10T06:32:43.264Z,17.91
2022-11-10T06:33:25.035Z,17.93
2022-11-10T06:34:05.812Z,17.96
2022-11-10T06:34:46.255Z,17.95
2022-11-10T06:35:28.291Z,17.89
2022-11-10T06:36:09.058Z,17.87
2022-11-10T06:36:50.777Z,17.90
2022-11-10T06:37:31.589Z,17.91
2022-11-10T06:38:13.242Z,17.94
2022-11-10T06:38:53.870Z,17.95
2022-11-10T06:39:36.656Z,17.94
2022-11-10T06:40:17.512Z,17.96
2022-11-10T06:40:59.098Z,17.99
2022-11-10T06:41:39.507Z,18.01
2022-11-10T06:42:20.828Z,18.00
2022-11-10T06:43:01.772Z,18.01
2022-11-10T06:43:43.272Z,17.97
2022-11-10T06:44:23.922Z,17.97
2022-11-10T06:45:05.123Z,18.01
2022-11-10T06:45:46.763Z,18.04
2022-11-10T06:46:27.140Z,18.04
2022-11-10T06:47:08.591Z,18.06
2022-11-10T06:47:49.212Z,18.05
2022-11-10T06:48:30.844Z,18.06
2022-11-10T06:49:11.136Z,18.01
2022-11-10T06:49:52.649Z,18.03
2022-11-10T06:50:32.900Z,18.05
2022-11-10T06:51:14.365Z,18.07
2022-11-10T06:51:54.974Z,17.97
2022-11-10T06:52:36.591Z,18.02
2022-11-10T06:53:19.048Z,18.02
2022-11-10T06:54:01.989Z,18.03
2022-11-10T06:54:43.960Z,18.01
2022-11-10T06:55:25.344Z,17.95
2022-11-10T06:56:06.814Z,18.05
2022-11-10T06:56:48.488Z,17.97
2022-11-10T06:57:28.516Z,17.99
2022-11-10T06:58:09.911Z,18.00
2022-11-10T06:58:50.240Z,17.97
2022-11-10T06:59:31.336Z,17.93
2022-11-10T07:00:13.267Z,17.96
2022-11-10T07:00:54.784Z,17.94
2022-11-10T07:01:35.448Z,18.01
2022-11-10T07:02:17.650Z,18.05
2022-11-10T07:03:05.929Z,18.07
2022-11-10T07:04:13.082Z,18.04
2022-11-10T07:04:50.574Z,18.15
2022-11-10T07:05:34.090Z,18.08
2022-11-10T07:06:14.639Z,18.10
2022-11-10T07:06:56.274Z,18.06
2022-11-10T07:07:36.937Z,18.07
2022-11-10T07:08:18.454Z,18.15
2022-11-10T07:08:58.691Z,18.14
2022-11-10T07:09:40.592Z,18.14
2022-11-10T07:10:22.370Z,18.12
2022-11-10T07:11:04.508Z,18.17
2022-11-10T07:11:45.052Z,18.17
2022-11-10T07:12:26.779Z,18.19
2022-11-10T07:13:07.192Z,18.20
2022-11-10T07:13:48.934Z,18.19
2022-11-10T07:14:29.312Z,18.20
2022-11-10T07:15:11.685Z,18.19
2022-11-10T07:15:52.603Z,18.17
2022-11-10T07:16:33.018Z,18.16
2022-11-10T07:17:14.647Z,18.09
2022-11-10T07:17:55.481Z,18.06
2022-11-10T07:18:37.523Z,18.11
2022-11-10T07:19:17.843Z,18.01
2022-11-10T07:19:59.111Z,17.97
2022-11-10T07:20:39.702Z,18.02
2022-11-10T07:21:20.537Z,18.02
2022-11-10T07:22:06.659Z,17.97
2022-11-10T07:22:50.602Z,18.09
2022-11-10T07:23:33.419Z,18.07
2022-11-10T07:24:14.078Z,18.06
2022-11-10T07:24:56.124Z,18.00
2022-11-10T07:25:38.055Z,18.02
2022-11-10T07:26:19.916Z,18.01
2022-11-10T07:27:00.934Z,18.02
2022-11-10T07:27:42.815Z,18.05
2022-11-10T07:28:28.224Z,18.09
2022-11-10T07:29:09.694Z,18.13
2022-11-10T07:29:50.324Z,18.04
2022-11-10T07:30:34.699Z,18.03
2022-11-10T07:31:15.482Z,18.02
2022-11-10T07:31:57.768Z,18.01
2022-11-10T07:32:38.598Z,18.03
2022-11-10T07:33:25.149Z,18.04
2022-11-10T07:34:07.149Z,18.07
2022-11-10T07:34:48.919Z,18.10
2022-11-10T07:35:30.018Z,18.12
2022-11-10T07:36:11.618Z,18.09
2022-11-10T07:36:51.736Z,18.08
2022-11-10T07:37:34.947Z,18.10
2022-11-10T07:38:17.717Z,18.05
2022-11-10T07:39:00.158Z,18.09
2022-11-10T07:39:41.108Z,18.09
2022-11-10T07:40:22.827Z,18.17
2022-11-10T07:41:07.431Z,18.19
2022-11-10T07:41:52.411Z,18.21
2022-11-10T07:42:38.771Z,18.18
2022-11-10T07:43:20.459Z,18.13
2022-11-10T07:44:01.408Z,18.18
2022-11-10T07:44:43.812Z,18.16
2022-11-10T07:45:24.253Z,18.20
2022-11-10T07:46:05.755Z,18.21
2022-11-10T07:46:46.081Z,18.21
2022-11-10T07:47:26.631Z,18.17
2022-11-10T07:48:09.325Z,18.09
2022-11-10T07:48:49.746Z,18.04
2022-11-10T07:49:31.586Z,18.05
2022-11-10T07:50:12.140Z,18.12
2022-11-10T07:50:53.302Z,18.17
2022-11-10T07:51:34.555Z,18.21
2022-11-10T07:52:16.548Z,18.20
2022-11-10T07:53:04.078Z,18.21
2022-11-10T07:53:45.209Z,18.24
2022-11-10T07:54:25.753Z,18.24
2022-11-10T07:55:09.277Z,18.28
2022-11-10T07:55:49.617Z,18.24
2022-11-10T07:56:33.458Z,18.21
2022-11-10T07:57:14.515Z,18.19
2022-11-10T07:57:59.651Z,18.20
2022-11-10T07:58:40.289Z,18.21
2022-11-10T07:59:21.895Z,18.21
2022-11-10T08:00:02.686Z,18.20
2022-11-10T08:00:45.188Z,18.22
2022-11-10T08:01:25.985Z,18.20
2022-11-10T08:02:07.765Z,18.19
2022-11-10T08:02:50.766Z,18.21
2022-11-10T08:03:32.292Z,18.22
2022-11-10T08:04:12.928Z,18.24
2022-11-10T08:04:54.540Z,18.28
2022-11-10T08:05:35.157Z,18.29
2022-11-10T08:06:16.882Z,18.35
2022-11-10T08:06:58.801Z,18.37
2022-11-10T08:07:41.143Z,18.41
2022-11-10T08:08:21.662Z,18.40
2022-11-10T08:09:02.969Z,18.40
2022-11-10T08:09:43.561Z,18.38
2022-11-10T08:10:25.427Z,18.31
2022-11-10T08:11:06.503Z,18.37
2022-11-10T08:11:49.654Z,18.38
2022-11-10T08:12:32.674Z,18.36
2022-11-10T08:13:15.626Z,18.30
2022-11-10T08:13:56.208Z,18.36
2022-11-10T08:14:37.896Z,18.41
2022-11-10T08:15:18.625Z,18.45
2022-11-10T08:16:00.747Z,18.42
2022-11-10T08:16:41.117Z,18.41
2022-11-10T08:17:23.069Z,18.42
2022-11-10T08:18:06.186Z,18.33
2022-11-10T08:18:47.309Z,18.27
2022-11-10T08:19:28.128Z,18.28
2022-11-10T08:20:11.026Z,18.32
2022-11-10T08:20:52.329Z,18.34
2022-11-10T08:21:34.161Z,18.35
2022-11-10T08:22:14.724Z,18.36
2022-11-10T08:22:58.811Z,18.35
2022-11-10T08:23:40.517Z,18.36
2022-11-10T08:24:20.965Z,18.37
2022-11-10T08:25:03.355Z,18.43
2022-11-10T08:25:44.288Z,18.49
2022-11-10T08:26:25.895Z,18.41
2022-11-10T08:27:07.999Z,18.49
2022-11-10T08:27:48.467Z,18.48
2022-11-10T08:28:30.560Z,18.36
2022-11-10T08:29:11.139Z,18.31
2022-11-10T08:29:52.976Z,18.38
2022-11-10T08:30:34.747Z,18.50
2022-11-10T08:31:16.445Z,18.52
2022-11-10T08:31:57.332Z,18.58
2022-11-10T08:32:38.762Z,18.64
2022-11-10T08:33:21.425Z,18.71
2022-11-10T08:34:05.622Z,18.74
2022-11-10T08:34:49.118Z,18.71
2022-11-10T08:35:35.814Z,18.70
2022-11-10T08:36:16.359Z,18.73
2022-11-10T08:36:58.031Z,18.69
2022-11-10T08:37:38.437Z,18.66
2022-11-10T08:38:22.359Z,18.75
2022-11-10T08:39:05.077Z,18.83
2022-11-10T08:39:46.909Z,18.85
2022-11-10T08:40:27.780Z,18.81
2022-11-10T08:41:09.526Z,18.84
2022-11-10T08:41:52.429Z,18.85
2022-11-10T08:42:36.991Z,18.93
2022-11-10T08:43:18.563Z,18.95
2022-11-10T08:44:00.136Z,18.95
2022-11-10T08:44:40.517Z,18.96
2022-11-10T08:45:21.978Z,19.03
2022-11-10T08:46:02.305Z,19.06
2022-11-10T08:46:44.361Z,19.13
2022-11-10T08:47:24.582Z,19.12
2022-11-10T08:48:07.973Z,19.05
2022-11-10T08:48:48.323Z,18.96
2022-11-10T08:49:30.091Z,19.07
2022-11-10T08:50:10.672Z,19.14
2022-11-10T08:50:52.687Z,19.23
2022-11-10T08:51:38.738Z,19.29
2022-11-10T08:52:20.454Z,19.31
2022-11-10T08:53:01.595Z,19.35
2022-11-10T08:53:42.972Z,19.44
2022-11-10T08:54:23.787Z,19.49
2022-11-10T08:55:09.055Z,19.53
2022-11-10T08:55:52.127Z,19.55
2022-11-10T08:56:33.310Z,19.60
2022-11-10T08:57:13.741Z,19.63
2022-11-10T08:58:00.667Z,19.66
2022-11-10T08:58:50.155Z,19.72
2022-11-10T08:59:34.848Z,19.78
2022-11-10T09:00:17.555Z,19.78
2022-11-10T09:01:01.088Z,19.83
2022-11-10T09:01:43.124Z,19.83
2022-11-10T09:02:24.789Z,19.90
2022-11-10T09:03:06.820Z,19.95
2022-11-10T09:03:48.952Z,19.97